Hauptseite
METAR-TAF:

METAR-TAF

Flughäfen :

Flughafen Graz

Graz, Österreich

Breite: 47-00N, Länge: 015-26E, Höhe: 340 m

Beobachtung

Neuester Wetterbericht von vor 16 Minuten, um 07:50 UTC
Wind 3 kt aus Südost, variierte zwischen Ost und Süd/Südost
Temperatur 18°C
Luftfeuchtigkeit 59%
Luftdruck 1022 hPa
Sichtweite 10 km oder mehr

METAR: LOWG 140750Z AUTO 13003KT 090V160 9999 NCD 18/10 Q1022 NOSIG

Zeit: 10:06 (08:06 UTC)

Prognose

Neuester Wetterbericht von vor 2 Stunden und 51 Minuten, um 05:15 UTC
Gültige Prognose vom 14 um 06 UTC bis 15 um 06 UTC
Wind 4 kt aus unterschiedlichen Richtungen
Sichtweite 10 km oder mehr
keine Wolken unter 1500 m und keine Kumulonimbus oder Gewitterwolken
Zeitweise
vom 14 um 10 UTC bis 14 um 17 UTC
Wind 8 kt aus Süd

TAF: LOWG 140515Z 1406/1506 VRB04KT CAVOK TX30/1414Z TN12/1406Z TEMPO 1410/1417 17008KT

Wetterbeobachtungen und Prognosen von mehr als 4000 Flughäfen (METAR und TAF Bericht).

Die verfügbaren Stationen werden durch gelbe und rote Markierungen auf der Karte dargestellt.

Führen Sie die Maus auf sie, um den Namen der Station zu sehen.

Darauf klicken, um die Beobachtung von Wetterbeobachtungen und Prognosen zu sehen.

Um die Karte zu ändern : klicken Sie auf den grünen Tasten mit einem schwarzen Kreuz Zum Vergrößern, auf den grünen Button mit einem Gedankenstrich zu verkleinern, oder auf die grünen Pfeile für benachbarte Karten.


METAR-TAF: